Northwest Alabama Regional Airport
KMSL : now visible

Airfield :











YOU CAN JOIN US ON...

 
LOGIN :

Register | Disclaimer

   EN    FR    IT 

 









Legend :    VFR   Marginal VFR   IFR   Intensive IFR   Very Intensive IFR
Visi :
Ceiling :
>= 8 km
>= 3000ft
5 to 8 km
1000 to 3000 ft
1500m to 5 km
500 to 1000 ft
800 to 1500m
200 to 500 ft
< 800m
< 200 ft
Symbols :   Thunderstorms  Fog  Heavy snow  Heavy precipitations  Wind > 20 kt






- Airport Elevation : 551 ft
- IATA code : MSL


KMSL - Northwest Alabama Regional

METAR N/A
TAF KMSL
Valid from the 29 at 00:00 until the 30 at 00:00 UTC


282347Z 2900/2924 14010KT P6SM -RA SCT025 BKN050 OVC100
FM290300 12012G20KT P6SM -RA SCT025 BKN050 OVC100 WS020/15040KT
FM290500 10015G25KT 4SM +RA BR SCT008 BKN015 OVC025 WS020/15040KT
FM290800 34015G25KT 4SM -SHRA BR SCT008 BKN015 OVC025
FM291400 25012G20KT P6SM BKN015 OVC025
FM292000 25010KT P6SM BKN025 BKN035 AMD NOT SKED
KZME FIR / North America



MET'MAP, your aeronautical weather chart ! - Copyright ORBIFLY December 2007 - Disclaimer

ORBIFLY MET'MAP TEAM :

Programming & Development : Alexandra Zaïnal
Concept & original design : Baudouin d'Aumeries
Assistance for programming : Marc-Olivier Méhu
Technical & hardware support : Manuel Goepfert

Contact : metmap@orbifly.com




SOURCES & CREDITS :

   NOAA       Earth
Advisory